Time;durP1;ratioP1;P1;durP2;ratioP2;P2;SDS_P1;SDS_P2;PMS_P1;PMS_P2;Temp;Humidity;BMP_temperature;BMP_pressure;BME280_temperature;BME280_humidity;BME280_pressure;Samples;Min_cycle;Max_cycle;Signal;HPM_P1;HPM_P2
2021/03/22 00:00:56;;;;;;;18.83;4.43;;;4.50;99.90;;;;;;4971768;28;20425;-81
2021/03/22 00:03:24;;;;;;;20.13;4.75;;;4.50;99.90;;;;;;4994674;28;20057;-81
2021/03/22 00:05:51;;;;;;;17.35;4.65;;;4.50;99.90;;;;;;4970823;28;20059;-81
2021/03/22 00:08:19;;;;;;;16.60;3.72;;;4.50;99.90;;;;;;4977904;28;20596;-81
2021/03/22 00:10:46;;;;;;;27.92;3.53;;;4.50;99.90;;;;;;4988118;28;20050;-80
2021/03/22 00:13:14;;;;;;;23.90;5.53;;;4.40;99.90;;;;;;4984172;28;20133;-81
2021/03/22 00:15:41;;;;;;;22.25;4.60;;;4.40;99.90;;;;;;4972384;28;20077;-81
2021/03/22 00:18:11;;;;;;;26.40;5.45;;;4.40;99.90;;;;;;4983804;28;20083;-81
2021/03/22 00:20:38;;;;;;;21.38;4.05;;;4.40;99.90;;;;;;4994204;28;20133;-82
2021/03/22 00:23:05;;;;;;;25.85;4.88;;;4.30;99.90;;;;;;4979074;28;21220;-81
2021/03/22 00:25:31;;;;;;;23.50;5.32;;;4.30;99.90;;;;;;4982892;28;20121;-81
2021/03/22 00:27:57;;;;;;;26.02;4.75;;;4.20;99.90;;;;;;4995298;28;20058;-81
2021/03/22 00:30:27;;;;;;;23.77;4.85;;;4.20;99.90;;;;;;4979636;28;20503;-81
2021/03/22 00:32:54;;;;;;;15.80;4.65;;;4.20;99.90;;;;;;4980390;28;20078;-81
2021/03/22 00:35:21;;;;;;;27.38;7.50;;;4.10;99.90;;;;;;4982041;28;20054;-81
2021/03/22 00:37:48;;;;;;;25.00;5.57;;;4.10;99.90;;;;;;4980279;28;20066;-81
2021/03/22 00:40:15;;;;;;;26.15;5.57;;;4.10;99.90;;;;;;4992953;28;20118;-81
2021/03/22 00:42:42;;;;;;;27.20;5.25;;;4.10;99.90;;;;;;4992753;28;20055;-82
2021/03/22 00:45:10;;;;;;;27.13;5.85;;;4.10;99.90;;;;;;4980331;28;20061;-81
2021/03/22 00:47:37;;;;;;;34.28;5.93;;;4.10;99.90;;;;;;4973028;28;20133;-81
2021/03/22 00:50:05;;;;;;;25.33;5.47;;;4.10;99.90;;;;;;4981801;28;20051;-81
2021/03/22 00:52:32;;;;;;;27.00;6.63;;;4.10;99.90;;;;;;4984068;28;20138;-81
2021/03/22 00:54:58;;;;;;;29.25;6.25;;;4.10;99.90;;;;;;4975093;28;20102;-81
2021/03/22 00:57:24;;;;;;;32.00;6.35;;;4.20;99.90;;;;;;4971573;28;20151;-81
2021/03/22 00:59:50;;;;;;;24.10;5.78;;;4.20;99.90;;;;;;4968178;28;20122;-81
2021/03/22 01:02:17;;;;;;;20.55;6.03;;;4.30;99.90;;;;;;4969417;28;20062;-81
2021/03/22 01:04:43;;;;;;;31.55;5.95;;;4.40;99.90;;;;;;4987824;28;20053;-81
2021/03/22 01:07:10;;;;;;;29.20;7.05;;;4.40;99.90;;;;;;4970797;28;20130;-81
2021/03/22 01:09:36;;;;;;;24.20;5.47;;;4.50;99.90;;;;;;4968565;28;20109;-82
2021/03/22 01:12:04;;;;;;;36.13;6.70;;;4.50;99.90;;;;;;4973318;28;20057;-82
2021/03/22 01:14:30;;;;;;;20.20;5.68;;;4.60;99.90;;;;;;4972602;28;20590;-81
2021/03/22 01:16:56;;;;;;;25.25;7.32;;;4.70;99.90;;;;;;4969962;28;20101;-81
2021/03/22 01:19:25;;;;;;;31.67;6.65;;;4.70;99.90;;;;;;4971147;28;20098;-81
2021/03/22 01:21:55;;;;;;;27.48;6.97;;;4.80;99.90;;;;;;4983201;28;20047;-81
2021/03/22 01:24:24;;;;;;;30.33;7.15;;;4.90;99.90;;;;;;4968937;28;20490;-81
2021/03/22 01:26:57;;;;;;;25.13;5.75;;;4.90;99.90;;;;;;4970313;28;20065;-81
2021/03/22 01:29:24;;;;;;;26.95;7.03;;;5.00;99.90;;;;;;4965814;28;20053;-81
2021/03/22 01:31:53;;;;;;;26.48;6.40;;;5.00;99.90;;;;;;4984212;28;20543;-81
2021/03/22 01:34:20;;;;;;;28.08;7.18;;;5.10;99.90;;;;;;4966636;28;20046;-81
2021/03/22 01:36:46;;;;;;;27.60;6.45;;;5.10;99.90;;;;;;4983580;28;20064;-81
2021/03/22 01:39:24;;;;;;;36.95;7.18;;;5.10;99.90;;;;;;4965450;28;20150;-81
2021/03/22 01:42:05;;;;;;;21.33;5.57;;;5.20;99.90;;;;;;4983629;28;20050;-81
2021/03/22 01:44:39;;;;;;;28.88;6.95;;;5.20;99.90;;;;;;4970732;28;20050;-81
2021/03/22 01:47:19;;;;;;;30.35;6.07;;;5.30;99.90;;;;;;4985608;28;20057;-81
2021/03/22 01:50:01;;;;;;;33.90;8.02;;;5.30;99.90;;;;;;4979138;28;20046;-81
2021/03/22 01:52:29;;;;;;;31.23;8.00;;;5.30;99.90;;;;;;4966633;28;20042;-81
2021/03/22 01:54:56;;;;;;;32.15;7.32;;;5.30;99.90;;;;;;4978464;28;20530;-81
2021/03/22 01:57:30;;;;;;;31.45;6.18;;;5.40;99.90;;;;;;4962475;28;20102;-81
2021/03/22 02:00:27;;;;;;;31.95;6.55;;;5.40;99.90;;;;;;4968226;28;20055;-81
2021/03/22 02:02:59;;;;;;;32.03;7.05;;;5.40;99.90;;;;;;4959656;28;20153;-81
2021/03/22 02:05:28;;;;;;;33.53;7.63;;;5.40;99.90;;;;;;4966605;28;20050;-81
2021/03/22 02:08:07;;;;;;;36.58;7.20;;;5.40;99.90;;;;;;4966385;28;20624;-81
2021/03/22 02:10:34;;;;;;;25.83;6.55;;;5.50;99.90;;;;;;4961309;28;20138;-82
2021/03/22 02:13:02;;;;;;;26.75;6.95;;;5.50;99.90;;;;;;4965808;28;20058;-81
2021/03/22 02:15:29;;;;;;;33.15;6.60;;;5.50;99.90;;;;;;4969139;28;20051;-81
2021/03/22 02:18:18;;;;;;;28.23;5.75;;;5.50;99.90;;;;;;4969245;28;20121;-80
2021/03/22 02:21:08;;;;;;;24.92;6.40;;;5.50;99.90;;;;;;4967878;28;20050;-80
2021/03/22 02:23:40;;;;;;;31.75;5.53;;;5.60;99.90;;;;;;4967306;28;20055;-81
2021/03/22 02:26:48;;;;;;;22.67;4.85;;;5.50;99.90;;;;;;4980834;28;20107;-81
2021/03/22 02:29:55;;;;;;;35.88;6.45;;;5.50;99.90;;;;;;4966784;28;20045;-80
2021/03/22 02:32:28;;;;;;;23.73;6.13;;;5.40;99.90;;;;;;4965824;28;20038;-81
2021/03/22 02:35:38;;;;;;;37.00;6.63;;;5.40;99.90;;;;;;4984024;28;20135;-79
2021/03/22 02:38:19;;;;;;;22.80;5.55;;;5.40;99.90;;;;;;4965700;28;20138;-80
2021/03/22 02:41:07;;;;;;;26.10;5.50;;;5.40;99.90;;;;;;4979920;28;20105;-80
2021/03/22 02:43:35;;;;;;;27.25;4.60;;;5.30;99.90;;;;;;4966444;28;20059;-80
2021/03/22 02:46:04;;;;;;;35.00;5.63;;;5.30;99.90;;;;;;4975761;28;20410;-82
2021/03/22 02:48:34;;;;;;;33.85;5.25;;;5.30;99.90;;;;;;4967235;28;20118;-80
2021/03/22 02:51:17;;;;;;;31.88;4.85;;;5.30;99.90;;;;;;4985988;28;20519;-81
2021/03/22 02:53:54;;;;;;;26.40;4.53;;;5.30;99.90;;;;;;4963386;28;20057;-80
2021/03/22 02:56:52;;;;;;;24.42;4.03;;;5.30;99.90;;;;;;4964051;28;20158;-81
2021/03/22 02:59:27;;;;;;;20.95;3.92;;;5.30;99.90;;;;;;4970631;28;20108;-81
2021/03/22 03:01:58;;;;;;;20.60;5.43;;;5.30;99.90;;;;;;4972607;28;20078;-80
2021/03/22 03:04:27;;;;;;;20.85;4.72;;;5.20;99.90;;;;;;4972236;28;20050;-80
2021/03/22 03:06:59;;;;;;;18.67;3.58;;;5.20;99.90;;;;;;4970848;28;20061;-81
2021/03/22 03:09:29;;;;;;;18.40;4.03;;;5.20;99.90;;;;;;4970416;28;20454;-80
2021/03/22 03:11:56;;;;;;;28.95;5.30;;;5.20;99.90;;;;;;4970672;28;20453;-81
2021/03/22 03:14:23;;;;;;;27.85;3.35;;;5.20;99.90;;;;;;4969424;28;20070;-80
2021/03/22 03:16:50;;;;;;;23.52;3.72;;;5.10;99.90;;;;;;4972682;28;20046;-80
2021/03/22 03:19:16;;;;;;;15.45;4.38;;;5.10;99.90;;;;;;4969932;28;20047;-80
2021/03/22 03:21:43;;;;;;;19.05;3.45;;;5.10;99.90;;;;;;4985779;28;20724;-81
2021/03/22 03:24:10;;;;;;;23.08;4.07;;;5.10;99.90;;;;;;4972679;28;20035;-80
2021/03/22 03:26:37;;;;;;;26.23;4.40;;;5.10;99.90;;;;;;4961314;28;20165;-81
2021/03/22 03:29:05;;;;;;;26.10;4.60;;;5.10;99.90;;;;;;4969709;28;25381;-81
2021/03/22 03:31:33;;;;;;;20.48;2.75;;;5.10;99.90;;;;;;4970459;28;20043;-81
2021/03/22 03:34:00;;;;;;;17.15;3.05;;;5.10;99.90;;;;;;4968858;28;20055;-81
2021/03/22 03:36:27;;;;;;;17.02;3.53;;;5.00;99.90;;;;;;4976089;28;20046;-81
2021/03/22 03:38:53;;;;;;;19.58;3.72;;;5.00;99.90;;;;;;4975422;28;20716;-80
2021/03/22 03:41:19;;;;;;;16.92;2.88;;;4.90;99.90;;;;;;4988264;28;20102;-81
2021/03/22 03:43:45;;;;;;;20.25;3.20;;;4.90;99.90;;;;;;4975464;28;20489;-81
2021/03/22 03:46:11;;;;;;;27.23;4.00;;;4.80;99.90;;;;;;4970505;28;20047;-81
2021/03/22 03:48:38;;;;;;;25.05;3.47;;;4.90;99.90;;;;;;4972083;28;20117;-81
2021/03/22 03:51:05;;;;;;;19.65;2.95;;;4.90;99.90;;;;;;4972369;28;20054;-81
2021/03/22 03:53:31;;;;;;;16.55;2.88;;;4.90;99.90;;;;;;4967748;28;20074;-81
2021/03/22 03:56:00;;;;;;;13.05;2.25;;;4.80;99.90;;;;;;4987384;28;20071;-80
2021/03/22 03:58:26;;;;;;;14.88;2.40;;;4.90;99.90;;;;;;4976738;28;20070;-81
2021/03/22 04:00:53;;;;;;;17.83;3.45;;;4.90;99.90;;;;;;4997485;28;20514;-81
2021/03/22 04:03:26;;;;;;;14.77;2.13;;;5.00;99.90;;;;;;5007706;28;20057;-81
2021/03/22 04:05:59;;;;;;;15.43;2.88;;;5.00;99.90;;;;;;5008968;28;20050;-81
2021/03/22 04:08:27;;;;;;;22.88;4.00;;;5.10;99.90;;;;;;5009449;28;20049;-81
2021/03/22 04:10:55;;;;;;;15.40;2.47;;;5.10;99.90;;;;;;4989373;28;20561;-80
2021/03/22 04:13:22;;;;;;;21.67;3.85;;;5.10;99.90;;;;;;4998634;28;20030;-80
2021/03/22 04:15:48;;;;;;;18.77;2.53;;;5.10;99.90;;;;;;4995872;28;20100;-80
2021/03/22 04:18:31;;;;;;;16.02;2.90;;;5.10;99.90;;;;;;4992156;28;20533;-81
2021/03/22 04:20:58;;;;;;;13.25;2.92;;;5.20;99.90;;;;;;5009324;28;20053;-80
2021/03/22 04:23:24;;;;;;;19.55;3.28;;;5.20;99.90;;;;;;5008180;28;20060;-81
2021/03/22 04:25:50;;;;;;;13.27;2.38;;;5.20;99.90;;;;;;4999110;28;20132;-80
2021/03/22 04:28:17;;;;;;;17.67;2.38;;;5.10;99.90;;;;;;4992532;28;20140;-80
2021/03/22 04:30:43;;;;;;;15.23;3.38;;;5.10;99.90;;;;;;5007912;28;20077;-80
2021/03/22 04:33:09;;;;;;;11.15;3.15;;;5.10;99.90;;;;;;5008403;28;20054;-81
2021/03/22 04:35:36;;;;;;;15.38;2.05;;;5.00;99.90;;;;;;5008868;28;21683;-81
2021/03/22 04:38:02;;;;;;;13.15;2.35;;;5.00;99.90;;;;;;5010230;28;20058;-80
2021/03/22 04:40:29;;;;;;;12.43;2.92;;;4.90;99.90;;;;;;4988015;28;20050;-80
2021/03/22 04:42:55;;;;;;;16.30;2.28;;;4.90;99.90;;;;;;4997162;28;20053;-80
2021/03/22 04:45:25;;;;;;;11.60;1.75;;;4.80;99.90;;;;;;4999590;28;20133;-81
2021/03/22 04:47:52;;;;;;;8.80;2.30;;;4.70;99.90;;;;;;4986611;28;20049;-80
2021/03/22 04:50:20;;;;;;;11.73;2.08;;;4.70;99.90;;;;;;4998955;28;20136;-80
2021/03/22 04:52:47;;;;;;;9.02;1.80;;;4.60;99.90;;;;;;4992168;28;20049;-79
2021/03/22 04:55:15;;;;;;;15.85;2.03;;;4.60;99.90;;;;;;5000516;28;20062;-79
2021/03/22 04:57:42;;;;;;;16.42;1.90;;;4.60;99.90;;;;;;4990575;28;20042;-80
2021/03/22 05:00:19;;;;;;;8.43;2.05;;;4.50;99.90;;;;;;5004264;28;20141;-80
2021/03/22 05:02:46;;;;;;;15.70;1.95;;;4.50;99.90;;;;;;4988596;28;20057;-80
2021/03/22 05:05:14;;;;;;;16.35;2.33;;;4.50;99.90;;;;;;5005942;28;20069;-80
2021/03/22 05:07:40;;;;;;;12.57;2.40;;;4.60;99.90;;;;;;5007690;28;20095;-80
2021/03/22 05:10:09;;;;;;;17.20;2.50;;;4.60;99.90;;;;;;5007096;28;20088;-79
2021/03/22 05:12:35;;;;;;;10.25;1.85;;;4.60;99.90;;;;;;5005857;28;20045;-80
2021/03/22 05:15:01;;;;;;;11.20;2.40;;;4.70;99.90;;;;;;4995184;28;20049;-80
2021/03/22 05:17:27;;;;;;;9.88;2.00;;;4.70;99.90;;;;;;5007940;28;20053;-80
2021/03/22 05:19:54;;;;;;;11.85;2.30;;;4.70;99.90;;;;;;5006427;28;20088;-79
2021/03/22 05:22:20;;;;;;;12.93;1.63;;;4.60;99.90;;;;;;5000825;28;20054;-80
2021/03/22 05:24:46;;;;;;;14.35;3.70;;;4.60;99.90;;;;;;5007139;28;20056;-81
2021/03/22 05:27:12;;;;;;;13.15;3.20;;;4.50;99.90;;;;;;4990801;28;20145;-81
2021/03/22 05:29:39;;;;;;;14.25;2.45;;;4.50;99.90;;;;;;4989658;28;20077;-81
2021/03/22 05:32:25;;;;;;;14.00;2.15;;;4.50;99.90;;;;;;5007872;28;20057;-81
2021/03/22 05:34:52;;;;;;;13.65;2.88;;;4.50;99.90;;;;;;4994184;28;20068;-80
2021/03/22 05:37:18;;;;;;;11.73;2.20;;;4.60;99.90;;;;;;4996985;28;20128;-80
2021/03/22 05:39:44;;;;;;;17.35;2.13;;;4.60;99.90;;;;;;4997680;28;20060;-81
2021/03/22 05:42:37;;;;;;;8.73;2.50;;;4.70;99.90;;;;;;5005788;28;20064;-80
2021/03/22 05:45:24;;;;;;;11.82;2.22;;;4.70;99.90;;;;;;4997240;28;20054;-81
2021/03/22 05:48:05;;;;;;;13.75;1.83;;;4.70;99.90;;;;;;4987154;28;20042;-81
2021/03/22 05:50:41;;;;;;;9.52;1.40;;;4.70;99.90;;;;;;5006100;28;21052;-81
2021/03/22 05:53:26;;;;;;;8.60;1.75;;;4.80;99.90;;;;;;4980121;28;20524;-81
2021/03/22 05:55:54;;;;;;;8.82;2.20;;;4.80;99.90;;;;;;4996724;28;20404;-81
2021/03/22 05:58:31;;;;;;;17.35;1.85;;;4.80;99.90;;;;;;5002727;28;20136;-81
2021/03/22 06:01:30;;;;;;;9.02;2.17;;;4.90;99.90;;;;;;5007391;28;20085;-82
2021/03/22 06:04:06;;;;;;;13.55;2.53;;;4.90;99.90;;;;;;4989275;28;20096;-80
2021/03/22 06:06:36;;;;;;;9.23;2.05;;;4.90;99.90;;;;;;5004306;28;20054;-81
2021/03/22 06:09:28;;;;;;;12.68;3.22;;;5.00;99.90;;;;;;4999316;28;20812;-81
2021/03/22 06:12:27;;;;;;;14.15;2.20;;;5.10;99.90;;;;;;4996398;28;20124;-81
2021/03/22 06:15:26;;;;;;;13.10;1.83;;;5.20;99.90;;;;;;4983185;28;20056;-80
2021/03/22 06:17:59;;;;;;;10.75;1.92;;;5.20;99.90;;;;;;4992184;28;20059;-81
2021/03/22 06:20:37;;;;;;;9.03;2.00;;;5.30;99.90;;;;;;5006851;28;20046;-81
2021/03/22 06:23:17;;;;;;;14.70;2.47;;;5.30;99.90;;;;;;4990353;28;20101;-81
2021/03/22 06:25:43;;;;;;;12.25;1.98;;;5.40;99.90;;;;;;5013496;28;20512;-81
2021/03/22 06:28:16;;;;;;;11.00;2.03;;;5.40;99.90;;;;;;4995766;28;20104;-81
2021/03/22 06:30:59;;;;;;;8.60;1.83;;;5.50;99.90;;;;;;5011315;28;20073;-81
2021/03/22 06:33:40;;;;;;;16.80;2.25;;;5.50;99.90;;;;;;4993070;28;20100;-81
2021/03/22 06:36:09;;;;;;;12.07;1.95;;;5.50;99.90;;;;;;4993567;28;20056;-81
2021/03/22 06:38:35;;;;;;;14.25;2.20;;;5.50;99.90;;;;;;4996056;28;20061;-81
2021/03/22 06:41:28;;;;;;;14.93;2.92;;;5.60;99.90;;;;;;5001551;28;20053;-81
2021/03/22 06:43:57;;;;;;;12.60;2.10;;;5.60;99.90;;;;;;4992322;28;20104;-81
2021/03/22 06:46:25;;;;;;;16.63;3.80;;;5.70;99.90;;;;;;4993305;28;20500;-81
2021/03/22 06:49:16;;;;;;;6.53;1.58;;;5.80;99.90;;;;;;4991658;28;20085;-81
2021/03/22 06:51:54;;;;;;;16.20;2.17;;;5.90;99.90;;;;;;4990291;28;20050;-80
2021/03/22 06:55:00;;;;;;;11.15;2.75;;;5.90;99.90;;;;;;4993791;28;20199;-80
2021/03/22 06:57:28;;;;;;;14.88;2.00;;;6.00;99.90;;;;;;4975438;28;20133;-80
2021/03/22 07:00:15;;;;;;;13.57;1.70;;;6.10;99.90;;;;;;4997012;28;20054;-79
2021/03/22 07:02:47;;;;;;;11.27;1.98;;;6.20;99.90;;;;;;4985063;28;20085;-79
2021/03/22 07:05:30;;;;;;;14.00;2.80;;;6.30;99.90;;;;;;4990750;28;20057;-78
2021/03/22 07:08:19;;;;;;;7.50;1.55;;;6.40;99.90;;;;;;4987807;28;20626;-79
2021/03/22 07:10:55;;;;;;;14.63;2.00;;;6.50;99.90;;;;;;5002595;28;20110;-77
2021/03/22 07:13:27;;;;;;;11.02;2.00;;;6.50;99.90;;;;;;4999662;28;20156;-79
2021/03/22 07:16:15;;;;;;;14.50;2.75;;;6.60;99.90;;;;;;4987234;28;20046;-79
2021/03/22 07:18:42;;;;;;;13.45;2.47;;;6.80;99.90;;;;;;4992480;28;20053;-81
2021/03/22 07:21:13;;;;;;;11.43;1.65;;;6.80;99.90;;;;;;4989047;28;20057;-82
2021/03/22 07:23:51;;;;;;;7.35;1.42;;;6.90;99.90;;;;;;4992023;28;20076;-80
2021/03/22 07:26:18;;;;;;;9.18;2.08;;;7.00;99.90;;;;;;5014286;28;20049;-81
2021/03/22 07:29:06;;;;;;;14.60;1.85;;;7.10;99.90;;;;;;4998429;28;20058;-81
2021/03/22 07:32:12;;;;;;;7.78;1.23;;;7.30;99.90;;;;;;4991299;28;20081;-80
2021/03/22 07:35:07;;;;;;;4.15;1.10;;;7.40;99.90;;;;;;4941952;28;20058;-79
2021/03/22 07:37:53;;;;;;;10.40;1.25;;;7.50;99.90;;;;;;5007386;28;20058;-80
2021/03/22 07:40:25;;;;;;;12.73;1.05;;;7.60;99.90;;;;;;5002090;28;20695;-81
2021/03/22 07:43:06;;;;;;;7.55;0.90;;;7.70;99.90;;;;;;4987233;28;20570;-81
2021/03/22 07:45:52;;;;;;;7.60;1.10;;;7.80;99.90;;;;;;5008211;28;20145;-81
2021/03/22 07:49:16;;;;;;;4.78;1.08;;;7.80;99.90;;;;;;5008594;28;20037;-80
2021/03/22 07:52:31;;;;;;;7.20;1.02;;;7.80;99.90;;;;;;4914537;29;20055;-81
2021/03/22 07:55:15;;;;;;;3.17;0.70;;;7.70;99.90;;;;;;4896715;29;20099;-80
2021/03/22 07:58:26;;;;;;;0.80;0.35;;;7.60;99.90;;;;;;4971347;28;20089;-81
2021/03/22 08:01:25;;;;;;;1.58;0.43;;;7.50;99.90;;;;;;4950836;28;20122;-81
2021/03/22 08:04:10;;;;;;;2.75;0.60;;;7.40;99.90;;;;;;4972029;28;20044;-80
2021/03/22 08:06:49;;;;;;;3.55;0.80;;;7.40;99.90;;;;;;4993678;28;20049;-80
2021/03/22 08:09:28;;;;;;;5.72;0.70;;;7.50;99.90;;;;;;5009784;28;20117;-81
2021/03/22 08:12:13;;;;;;;2.35;0.77;;;7.60;99.90;;;;;;4997003;28;20146;-80
2021/03/22 08:14:39;;;;;;;3.30;0.60;;;7.60;99.90;;;;;;5007717;28;20104;-81
2021/03/22 08:17:08;;;;;;;6.75;1.17;;;7.60;99.90;;;;;;5013728;28;20100;-80
2021/03/22 08:19:45;;;;;;;3.58;0.90;;;7.50;99.90;;;;;;5009354;28;20070;-81
2021/03/22 08:22:30;;;;;;;8.43;1.05;;;7.70;99.90;;;;;;5011722;28;20557;-80
2021/03/22 08:25:15;;;;;;;4.22;0.93;;;7.90;99.90;;;;;;5008975;28;20448;-79
2021/03/22 08:27:50;;;;;;;3.58;0.60;;;8.30;99.90;;;;;;5009844;28;20069;-81
2021/03/22 08:30:35;;;;;;;7.47;1.05;;;8.70;99.90;;;;;;4994099;28;20095;-80
2021/03/22 08:33:16;;;;;;;1.75;0.60;;;8.90;99.90;;;;;;4980328;28;20568;-80
2021/03/22 08:35:59;;;;;;;2.90;0.45;;;9.00;99.90;;;;;;4995074;28;20046;-80
2021/03/22 08:38:46;;;;;;;1.85;1.02;;;9.10;99.90;;;;;;5009410;28;20459;-80
2021/03/22 08:41:29;;;;;;;5.97;0.63;;;9.10;99.90;;;;;;4986876;28;20077;-80
2021/03/22 08:44:08;;;;;;;4.70;0.50;;;9.20;99.90;;;;;;4999589;28;20125;-80
2021/03/22 08:47:00;;;;;;;3.65;0.40;;;9.20;99.90;;;;;;4993743;28;20057;-81
2021/03/22 08:49:50;;;;;;;3.85;0.60;;;9.30;99.90;;;;;;5007849;28;20100;-79
2021/03/22 08:52:31;;;;;;;3.03;0.40;;;9.40;99.90;;;;;;4988455;28;20105;-78
2021/03/22 08:55:08;;;;;;;3.55;0.70;;;9.50;99.90;;;;;;5008779;28;20132;-80
2021/03/22 08:58:06;;;;;;;3.15;0.60;;;9.70;99.90;;;;;;5001975;28;20080;-80
2021/03/22 09:00:37;;;;;;;4.13;0.32;;;9.70;99.90;;;;;;4989484;28;20893;-80
2021/03/22 09:03:27;;;;;;;4.95;0.55;;;9.70;99.90;;;;;;5008940;28;20054;-80
2021/03/22 09:06:15;;;;;;;1.65;0.60;;;9.50;99.90;;;;;;4998370;28;20053;-81
2021/03/22 09:08:50;;;;;;;3.22;0.43;;;9.30;99.90;;;;;;4997681;28;20048;-81
2021/03/22 09:11:29;;;;;;;6.65;0.70;;;9.10;99.90;;;;;;5003413;28;20096;-81
2021/03/22 09:14:20;;;;;;;3.55;0.88;;;8.90;99.90;;;;;;5005159;28;20761;-81
2021/03/22 09:16:51;;;;;;;6.68;0.88;;;8.80;99.90;;;;;;5001802;28;20053;-81
2021/03/22 09:19:40;;;;;;;2.55;0.80;;;8.80;99.90;;;;;;4988028;28;20064;-81
2021/03/22 09:22:19;;;;;;;4.05;1.10;;;8.70;99.90;;;;;;4994895;28;20042;-81
2021/03/22 09:24:48;;;;;;;2.53;1.33;;;8.80;99.90;;;;;;5000725;28;20073;-79
2021/03/22 09:27:15;;;;;;;2.15;0.90;;;8.90;99.90;;;;;;4991247;28;21821;-79
2021/03/22 09:29:44;;;;;;;3.72;0.52;;;9.20;99.90;;;;;;4988979;28;20080;-80
2021/03/22 09:34:55;;;;;;;7.60;2.05;;;9.70;99.90;;;;;;5011385;28;20080;-80
2021/03/22 09:37:48;;;;;;;0.90;0.70;;;9.80;99.90;;;;;;4988563;28;20081;-80
2021/03/22 09:40:20;;;;;;;;;;;9.90;99.90;;;;;;5008403;28;20096;-81
2021/03/22 09:43:07;;;;;;;3.78;1.60;;;9.80;99.90;;;;;;5007317;28;19925;-82
2021/03/22 09:45:35;;;;;;;3.28;1.25;;;9.70;99.90;;;;;;4993019;28;20537;-82
2021/03/22 09:48:15;;;;;;;4.85;1.48;;;9.40;99.90;;;;;;5004069;28;20049;-79
2021/03/22 09:51:00;;;;;;;4.93;1.42;;;9.20;99.90;;;;;;5002140;28;20050;-79
2021/03/22 09:53:46;;;;;;;6.07;2.38;;;8.90;99.90;;;;;;5007579;28;20555;-79
2021/03/22 09:56:34;;;;;;;6.03;2.20;;;8.80;99.90;;;;;;5006160;28;20461;-79
2021/03/22 09:59:26;;;;;;;1.50;0.90;;;8.90;99.90;;;;;;4988098;28;20061;-79
2021/03/22 10:01:55;;;;;;;4.25;0.82;;;9.10;99.90;;;;;;4991657;28;20085;-79
2021/03/22 10:04:59;;;;;;;5.65;0.65;;;9.20;99.90;;;;;;4996963;28;20116;-79
2021/03/22 10:07:30;;;;;;;2.58;1.35;;;9.40;99.90;;;;;;4994319;28;20133;-79
2021/03/22 10:10:01;;;;;;;2.83;0.60;;;9.50;99.90;;;;;;4996209;28;20512;-79
2021/03/22 10:12:45;;;;;;;5.03;0.57;;;9.80;99.90;;;;;;4985758;28;20041;-79
2021/03/22 10:15:13;;;;;;;4.47;0.75;;;10.00;99.90;;;;;;4994605;28;20072;-79
2021/03/22 10:17:52;;;;;;;13.85;1.23;;;10.10;99.90;;;;;;5007965;28;20069;-79
2021/03/22 10:20:25;;;;;;;2.92;1.10;;;10.30;99.90;;;;;;5009761;28;20129;-78
2021/03/22 10:23:25;;;;;;;1.60;0.80;;;10.40;99.90;;;;;;4991674;28;20057;-79
2021/03/22 10:26:13;;;;;;;2.75;0.88;;;10.60;99.90;;;;;;4991213;28;20052;-79
2021/03/22 10:28:41;;;;;;;3.95;1.05;;;10.70;99.90;;;;;;5002215;28;20077;-79
2021/03/22 10:31:17;;;;;;;2.75;0.80;;;10.60;99.90;;;;;;4997025;28;20050;-79
2021/03/22 10:34:01;;;;;;;6.95;1.00;;;10.50;99.90;;;;;;5002872;28;20468;-80
2021/03/22 10:36:36;;;;;;;2.35;0.50;;;10.50;99.90;;;;;;4992847;28;20072;-80
2021/03/22 10:39:05;;;;;;;6.07;0.68;;;10.40;99.90;;;;;;5002841;28;20042;-80
2021/03/22 10:41:39;;;;;;;2.83;0.80;;;10.50;99.90;;;;;;4985506;28;20187;-79
2021/03/22 10:44:20;;;;;;;1.83;0.95;;;10.60;99.90;;;;;;4997485;28;20068;-79
2021/03/22 10:46:46;;;;;;;3.25;1.02;;;10.70;99.90;;;;;;5007737;28;20470;-79
2021/03/22 10:49:24;;;;;;;1.38;0.70;;;10.80;99.90;;;;;;4990926;28;25552;-79
2021/03/22 10:51:56;;;;;;;2.17;0.65;;;11.10;99.90;;;;;;4978221;28;20077;-79
2021/03/22 10:54:43;;;;;;;2.63;0.77;;;11.20;99.90;;;;;;4984560;28;20050;-79
2021/03/22 10:57:22;;;;;;;2.20;0.55;;;11.30;99.90;;;;;;5003356;28;20104;-80
2021/03/22 10:59:52;;;;;;;3.78;0.70;;;11.40;99.90;;;;;;4982658;28;20054;-80
2021/03/22 11:02:22;;;;;;;2.42;0.60;;;11.40;99.90;;;;;;4969803;28;20158;-80
2021/03/22 11:04:53;;;;;;;3.38;0.35;;;11.40;99.90;;;;;;4967609;28;20042;-79
2021/03/22 11:07:25;;;;;;;1.88;0.30;;;11.30;98.10;;;;;;4967128;28;20050;-80
2021/03/22 11:10:03;;;;;;;2.08;0.90;;;11.20;98.70;;;;;;4968869;28;20053;-80
2021/03/22 11:12:31;;;;;;;1.15;0.50;;;11.20;99.90;;;;;;4979502;28;20072;-80
2021/03/22 11:15:03;;;;;;;2.13;0.60;;;11.30;98.30;;;;;;4971285;28;20100;-81
2021/03/22 11:17:31;;;;;;;2.72;0.43;;;11.30;99.90;;;;;;4966343;28;20051;-82
2021/03/22 11:20:03;;;;;;;0.75;0.40;;;11.40;99.90;;;;;;4972926;28;20410;-81
2021/03/22 11:22:38;;;;;;;3.50;0.50;;;11.50;99.80;;;;;;4971055;28;20050;-80
2021/03/22 11:25:29;;;;;;;2.47;0.40;;;11.70;99.90;;;;;;4985441;28;20042;-80
2021/03/22 11:28:08;;;;;;;1.20;0.35;;;11.80;98.60;;;;;;4962876;28;20074;-79
2021/03/22 11:31:02;;;;;;;2.95;0.57;;;11.90;99.90;;;;;;4985086;28;20086;-80
2021/03/22 11:33:45;;;;;;;4.07;0.45;;;12.10;99.90;;;;;;4971940;28;20057;-81
2021/03/22 11:36:15;;;;;;;3.45;0.50;;;12.10;99.90;;;;;;4969963;28;20058;-80
2021/03/22 11:39:07;;;;;;;1.70;0.30;;;12.20;99.90;;;;;;4970504;28;20043;-82
2021/03/22 11:42:02;;;;;;;8.60;0.82;;;12.40;99.90;;;;;;4967228;28;20114;-79
2021/03/22 11:44:38;;;;;;;;;;;12.50;99.90;;;;;;4968917;28;20054;-82
2021/03/22 11:47:37;;;;;;;1.45;0.45;;;12.50;99.90;;;;;;4967835;28;20377;-80
2021/03/22 11:50:33;;;;;;;2.20;0.60;;;12.50;98.30;;;;;;4953556;28;20058;-79
2021/03/22 11:53:20;;;;;;;2.60;0.30;;;12.30;99.50;;;;;;4958026;28;20057;-80
2021/03/22 11:55:49;;;;;;;3.95;0.47;;;12.20;99.90;;;;;;4959836;28;20050;-79
2021/03/22 11:58:38;;;;;;;1.95;0.45;;;12.20;99.00;;;;;;4944180;28;20085;-80
2021/03/22 12:01:12;;;;;;;4.15;0.30;;;12.10;99.30;;;;;;5002744;28;20132;-79
2021/03/22 12:03:43;;;;;;;1.63;0.70;;;12.20;98.10;;;;;;4997273;28;20085;-81
2021/03/22 12:06:14;;;;;;;2.33;1.00;;;12.20;97.20;;;;;;4973440;28;20052;-80
2021/03/22 12:08:42;;;;;;;1.70;0.40;;;12.30;96.40;;;;;;4991104;28;20058;-79
2021/03/22 12:11:14;;;;;;;1.50;0.30;;;12.40;95.80;;;;;;5002237;28;20046;-80
2021/03/22 12:13:41;;;;;;;2.38;0.43;;;12.50;96.40;;;;;;4986718;28;20060;-80
2021/03/22 12:16:09;;;;;;;6.28;0.40;;;12.60;96.50;;;;;;5001545;28;20054;-80
2021/03/22 12:18:39;;;;;;;2.78;0.40;;;12.90;96.20;;;;;;4986903;28;20069;-80
2021/03/22 12:21:11;;;;;;;3.03;0.40;;;13.20;93.40;;;;;;5002069;28;20065;-80
2021/03/22 12:23:38;;;;;;;5.72;0.80;;;13.50;94.10;;;;;;4993621;28;20056;-80
2021/03/22 12:26:05;;;;;;;3.80;1.13;;;13.90;92.10;;;;;;4992588;28;20380;-80
2021/03/22 12:28:32;;;;;;;0.70;0.40;;;14.10;91.20;;;;;;4990730;28;20061;-81
2021/03/22 12:30:59;;;;;;;2.20;0.40;;;14.20;87.40;;;;;;4993651;28;20097;-80
2021/03/22 12:33:28;;;;;;;3.78;0.75;;;14.00;85.10;;;;;;4983727;28;20042;-80
2021/03/22 12:35:58;;;;;;;1.80;0.47;;;13.60;87.50;;;;;;4981323;28;20066;-80
2021/03/22 12:38:24;;;;;;;3.22;0.50;;;13.20;90.30;;;;;;4995292;28;20421;-79
2021/03/22 12:40:51;;;;;;;8.77;0.85;;;12.80;91.80;;;;;;4998103;28;20145;-80
2021/03/22 12:43:28;;;;;;;3.45;0.57;;;12.50;93.30;;;;;;4985034;28;20053;-80
2021/03/22 12:45:55;;;;;;;1.13;0.40;;;12.40;93.20;;;;;;4978758;28;20478;-80
2021/03/22 12:48:21;;;;;;;3.00;0.60;;;12.30;94.30;;;;;;4979812;28;20165;-79
2021/03/22 12:50:49;;;;;;;1.35;0.43;;;12.40;94.20;;;;;;4965853;28;20062;-80
2021/03/22 12:53:17;;;;;;;2.40;0.30;;;12.60;90.50;;;;;;4980349;28;20837;-80
2021/03/22 12:55:44;;;;;;;2.13;0.95;;;12.80;87.80;;;;;;4986790;28;20064;-78
2021/03/22 12:58:19;;;;;;;0.85;0.17;;;12.80;86.80;;;;;;4993945;28;20054;-80
2021/03/22 13:00:46;;;;;;;0.63;0.25;;;12.90;86.40;;;;;;4985635;28;20051;-78
2021/03/22 13:03:18;;;;;;;0.30;0.30;;;12.80;89.00;;;;;;4972280;28;20055;-78
2021/03/22 13:05:44;;;;;;;1.45;0.20;;;12.70;87.70;;;;;;4970932;28;20484;-78
2021/03/22 13:08:11;;;;;;;0.85;0.13;;;12.50;87.70;;;;;;4977199;28;20054;-80
2021/03/22 13:10:37;;;;;;;0.57;0.20;;;12.30;88.30;;;;;;4964732;28;20513;-78
2021/03/22 13:13:10;;;;;;;0.47;0.20;;;12.10;87.90;;;;;;4980178;28;20051;-78
2021/03/22 13:15:49;;;;;;;0.52;0.30;;;12.00;91.20;;;;;;4966664;28;20074;-78
2021/03/22 13:18:26;;;;;;;1.73;0.55;;;11.80;92.90;;;;;;4968334;28;20142;-78
2021/03/22 13:20:59;;;;;;;1.00;0.20;;;11.80;95.80;;;;;;4984971;28;20053;-78
2021/03/22 13:23:27;;;;;;;0.80;0.80;;;12.10;98.70;;;;;;4968843;28;20401;-78
2021/03/22 13:25:53;;;;;;;2.30;0.30;;;13.30;94.90;;;;;;4985488;28;20138;-78
2021/03/22 13:28:32;;;;;;;0.38;0.20;;;14.20;87.70;;;;;;4971464;28;20055;-78
2021/03/22 13:31:02;;;;;;;1.67;0.50;;;14.60;78.40;;;;;;4967301;28;20058;-79
2021/03/22 13:33:33;;;;;;;0.47;0.20;;;14.40;76.80;;;;;;4981440;28;20059;-78